Time;durP1;ratioP1;P1;durP2;ratioP2;P2;SDS_P1;SDS_P2;PMS_P1;PMS_P2;Temp;Humidity;BMP_temperature;BMP_pressure;BME280_temperature;BME280_humidity;BME280_pressure;Samples;Min_cycle;Max_cycle;Signal;HPM_P1;HPM_P2
2022/11/09 00:00:39;;;;;;;3.03;2.50;;;13.20;99.90;;;;;;5094882;28;20785;-66
2022/11/09 00:03:06;;;;;;;5.40;4.23;;;13.20;99.90;;;;;;5095346;28;20808;-66
2022/11/09 00:05:33;;;;;;;3.57;2.40;;;13.20;99.90;;;;;;5094434;28;20549;-66
2022/11/09 00:08:00;;;;;;;7.60;2.77;;;13.20;99.90;;;;;;5094840;28;20795;-66
2022/11/09 00:10:27;;;;;;;4.03;2.83;;;13.20;99.90;;;;;;5094651;28;20456;-66
2022/11/09 00:12:54;;;;;;;2.87;2.57;;;13.20;99.90;;;;;;5094762;28;20979;-66
2022/11/09 00:15:22;;;;;;;4.53;2.77;;;13.20;99.90;;;;;;5095112;28;20453;-67
2022/11/09 00:17:49;;;;;;;3.23;2.63;;;13.20;99.90;;;;;;5098646;28;20505;-67
2022/11/09 00:20:16;;;;;;;3.13;2.70;;;13.20;99.90;;;;;;5098719;28;20510;-66
2022/11/09 00:22:47;;;;;;;3.40;2.33;;;13.10;99.90;;;;;;5098828;28;20535;-66
2022/11/09 00:25:14;;;;;;;3.40;2.67;;;13.10;99.90;;;;;;5097986;28;21016;-67
2022/11/09 00:27:41;;;;;;;2.87;2.50;;;13.10;99.90;;;;;;5098554;28;20538;-66
2022/11/09 00:30:10;;;;;;;3.97;2.50;;;13.10;99.90;;;;;;5098195;28;20456;-65
2022/11/09 00:32:38;;;;;;;3.53;2.13;;;13.10;99.90;;;;;;5098374;28;20457;-66
2022/11/09 00:35:06;;;;;;;3.30;2.73;;;13.10;99.90;;;;;;5098872;28;20545;-66
2022/11/09 00:37:33;;;;;;;3.73;2.80;;;13.10;99.90;;;;;;5098434;28;20453;-66
2022/11/09 00:40:00;;;;;;;3.20;2.40;;;13.20;99.90;;;;;;5098920;28;20812;-65
2022/11/09 00:42:27;;;;;;;3.00;2.77;;;13.10;99.90;;;;;;5100418;28;20513;-65
2022/11/09 00:44:54;;;;;;;2.87;2.40;;;13.20;99.90;;;;;;5098531;28;20477;-66
2022/11/09 00:47:20;;;;;;;4.37;2.97;;;13.20;99.90;;;;;;5097705;28;20983;-65
2022/11/09 00:49:49;;;;;;;2.50;2.30;;;13.20;99.90;;;;;;5097690;28;20530;-66
2022/11/09 00:52:16;;;;;;;3.17;2.50;;;13.20;99.90;;;;;;5098138;28;20453;-66
2022/11/09 00:54:43;;;;;;;3.20;2.70;;;13.20;99.90;;;;;;5098180;28;20453;-65
2022/11/09 00:57:10;;;;;;;3.10;2.80;;;13.20;99.90;;;;;;5097637;28;20496;-66
2022/11/09 00:59:36;;;;;;;3.47;2.67;;;13.20;99.90;;;;;;5097473;28;20457;-66
2022/11/09 01:02:03;;;;;;;4.13;2.77;;;13.30;99.90;;;;;;5098392;28;20457;-65
2022/11/09 01:04:30;;;;;;;3.50;2.50;;;13.20;99.90;;;;;;5097978;28;20568;-65
2022/11/09 01:06:59;;;;;;;4.27;2.60;;;13.20;99.90;;;;;;5097779;28;20509;-66
2022/11/09 01:09:26;;;;;;;3.10;2.80;;;13.20;99.90;;;;;;5097875;28;20522;-66
2022/11/09 01:11:53;;;;;;;2.90;2.53;;;13.20;99.90;;;;;;5097634;28;20773;-65
2022/11/09 01:14:19;;;;;;;5.63;2.60;;;13.20;99.90;;;;;;5097191;28;20532;-66
2022/11/09 01:16:46;;;;;;;3.80;2.23;;;13.20;99.90;;;;;;5097238;28;20453;-66
2022/11/09 01:19:13;;;;;;;6.87;2.33;;;13.20;99.90;;;;;;5096956;28;20544;-66
2022/11/09 01:21:40;;;;;;;3.13;2.50;;;13.20;99.90;;;;;;5097212;28;20496;-66
2022/11/09 01:24:09;;;;;;;2.37;2.17;;;13.20;99.90;;;;;;5096832;28;20568;-66
2022/11/09 01:26:36;;;;;;;3.97;2.67;;;13.20;99.90;;;;;;5097043;28;20540;-66
2022/11/09 01:29:03;;;;;;;3.20;2.40;;;13.10;99.90;;;;;;5096554;28;20536;-66
2022/11/09 01:31:31;;;;;;;3.63;3.00;;;13.10;99.90;;;;;;5096689;28;20936;-66
2022/11/09 01:33:58;;;;;;;4.67;2.50;;;13.10;99.90;;;;;;5097042;28;20481;-67
2022/11/09 01:36:25;;;;;;;3.43;2.67;;;13.10;99.90;;;;;;5096993;28;20445;-65
2022/11/09 01:38:52;;;;;;;6.13;2.50;;;13.10;99.90;;;;;;5097143;28;20449;-65
2022/11/09 01:41:22;;;;;;;3.93;2.53;;;13.00;99.90;;;;;;5096455;28;20457;-66
2022/11/09 01:44:20;;;;;;;2.60;2.33;;;12.90;99.90;;;;;;5096964;28;20497;-67
2022/11/09 01:46:51;;;;;;;3.77;3.40;;;12.80;99.90;;;;;;5035048;28;20527;-66
2022/11/09 01:49:31;;;;;;;2.73;2.13;;;12.90;99.90;;;;;;5084537;28;20492;-66
2022/11/09 01:52:03;;;;;;;3.57;2.83;;;12.80;99.90;;;;;;5096706;28;20483;-66
2022/11/09 01:54:33;;;;;;;3.67;2.87;;;12.80;99.90;;;;;;5096860;28;20433;-66
2022/11/09 01:57:06;;;;;;;4.40;3.13;;;12.80;99.90;;;;;;5096419;28;20475;-66
2022/11/09 01:59:38;;;;;;;2.97;2.40;;;12.80;99.90;;;;;;5096786;28;20460;-66
2022/11/09 02:02:05;;;;;;;3.17;2.80;;;12.80;99.90;;;;;;5096443;28;20480;-67
2022/11/09 02:04:36;;;;;;;2.40;2.10;;;12.70;99.90;;;;;;5096245;28;20564;-67
2022/11/09 02:07:04;;;;;;;3.50;2.50;;;12.70;99.90;;;;;;5097068;28;20929;-66
2022/11/09 02:09:38;;;;;;;2.77;2.27;;;12.70;99.90;;;;;;5096612;28;20509;-66
2022/11/09 02:12:08;;;;;;;4.30;2.27;;;12.60;99.90;;;;;;5096567;28;20829;-64
2022/11/09 02:14:36;;;;;;;3.57;2.60;;;12.60;99.90;;;;;;5095918;28;20461;-65
2022/11/09 02:17:03;;;;;;;3.53;2.60;;;12.60;99.90;;;;;;5096239;28;20772;-65
2022/11/09 02:19:30;;;;;;;2.93;2.63;;;12.60;99.90;;;;;;5096202;28;20510;-66
2022/11/09 02:21:59;;;;;;;3.10;2.47;;;12.60;99.90;;;;;;5095924;28;20921;-66
2022/11/09 02:24:26;;;;;;;5.03;2.47;;;12.60;99.90;;;;;;5096368;28;20477;-65
2022/11/09 02:26:54;;;;;;;3.27;2.63;;;12.60;99.90;;;;;;5096262;28;20452;-66
2022/11/09 02:29:23;;;;;;;3.00;2.40;;;12.50;99.90;;;;;;5095883;28;20548;-66
2022/11/09 02:31:54;;;;;;;3.50;2.70;;;12.50;99.90;;;;;;5095899;28;20465;-66
2022/11/09 02:34:22;;;;;;;2.63;2.43;;;12.50;99.90;;;;;;5095692;28;20508;-66
2022/11/09 02:36:49;;;;;;;2.40;2.20;;;12.40;99.90;;;;;;5095621;28;20457;-66
2022/11/09 02:39:19;;;;;;;5.17;2.70;;;12.40;99.90;;;;;;5095905;28;20454;-66
2022/11/09 02:41:50;;;;;;;3.80;2.27;;;12.40;99.90;;;;;;5095922;28;20521;-66
2022/11/09 02:44:19;;;;;;;3.53;2.40;;;12.40;99.90;;;;;;5095708;28;20864;-66
2022/11/09 02:46:46;;;;;;;3.67;2.70;;;12.40;99.90;;;;;;5095374;28;20522;-68
2022/11/09 02:49:13;;;;;;;4.10;2.87;;;12.50;99.90;;;;;;5095697;28;20564;-66
2022/11/09 02:51:40;;;;;;;2.60;2.23;;;12.40;99.90;;;;;;5095354;28;20453;-66
2022/11/09 02:54:07;;;;;;;3.60;2.10;;;12.40;99.90;;;;;;5095547;28;20453;-66
2022/11/09 02:56:35;;;;;;;2.20;1.90;;;12.40;99.90;;;;;;5095677;28;20489;-66
2022/11/09 02:59:03;;;;;;;3.47;2.50;;;12.40;99.90;;;;;;5097647;28;20644;-65
2022/11/09 03:01:30;;;;;;;3.90;2.87;;;12.40;99.90;;;;;;5097648;28;20798;-66
2022/11/09 03:03:57;;;;;;;2.97;2.67;;;12.40;99.90;;;;;;5096539;28;20493;-66
2022/11/09 03:06:33;;;;;;;2.77;2.27;;;12.30;99.90;;;;;;5095193;28;20485;-66
2022/11/09 03:09:00;;;;;;;4.57;2.90;;;12.40;99.90;;;;;;5095084;28;20855;-66
2022/11/09 03:11:27;;;;;;;2.57;2.23;;;12.40;99.90;;;;;;5094995;28;20536;-66
2022/11/09 03:13:55;;;;;;;5.50;2.47;;;12.40;99.90;;;;;;5095652;28;20838;-67
2022/11/09 03:16:22;;;;;;;4.93;2.50;;;12.50;99.90;;;;;;5094986;28;20454;-67
2022/11/09 03:18:49;;;;;;;2.90;2.30;;;12.50;99.90;;;;;;5095017;28;20538;-66
2022/11/09 03:21:16;;;;;;;2.70;2.30;;;12.50;99.90;;;;;;5094870;28;20540;-66
2022/11/09 03:23:43;;;;;;;3.63;2.20;;;12.50;99.90;;;;;;5094779;28;20508;-67
2022/11/09 03:26:10;;;;;;;3.10;2.43;;;12.50;99.90;;;;;;5094844;28;20562;-68
2022/11/09 03:28:37;;;;;;;4.57;2.23;;;12.60;99.90;;;;;;5094685;28;20540;-67
2022/11/09 03:31:07;;;;;;;5.00;2.43;;;12.60;99.90;;;;;;5094664;28;20496;-66
2022/11/09 03:33:33;;;;;;;2.43;2.20;;;12.60;99.90;;;;;;5094860;28;20487;-67
2022/11/09 03:36:01;;;;;;;2.50;2.20;;;12.70;99.90;;;;;;5094783;28;20548;-67
2022/11/09 03:38:27;;;;;;;2.23;2.03;;;12.60;99.90;;;;;;5094790;28;20510;-65
2022/11/09 03:40:54;;;;;;;3.07;2.50;;;12.60;99.90;;;;;;5094796;28;20453;-66
2022/11/09 03:43:21;;;;;;;2.97;2.67;;;12.70;99.90;;;;;;5094362;28;20548;-67
2022/11/09 03:45:48;;;;;;;3.23;2.70;;;12.70;99.90;;;;;;5094513;28;20527;-66
2022/11/09 03:48:17;;;;;;;4.07;2.73;;;12.70;99.90;;;;;;5095389;28;20453;-65
2022/11/09 03:50:43;;;;;;;4.20;2.57;;;12.80;99.90;;;;;;5094288;28;20858;-67
2022/11/09 03:53:12;;;;;;;2.23;1.90;;;12.80;99.90;;;;;;5095172;28;20542;-65
2022/11/09 03:55:39;;;;;;;3.20;2.27;;;12.80;99.90;;;;;;5095209;28;20450;-67
2022/11/09 03:58:07;;;;;;;2.80;2.23;;;12.80;99.90;;;;;;5094712;28;20548;-65
2022/11/09 04:00:34;;;;;;;2.97;2.67;;;12.80;99.90;;;;;;5094963;28;20563;-66
2022/11/09 04:03:02;;;;;;;2.83;2.27;;;12.80;99.90;;;;;;5095214;28;20467;-66
2022/11/09 04:05:30;;;;;;;3.30;2.70;;;12.80;99.90;;;;;;5094439;28;21038;-66
2022/11/09 04:07:58;;;;;;;2.43;2.23;;;12.80;99.90;;;;;;5094769;28;20461;-66
2022/11/09 04:10:26;;;;;;;2.97;2.30;;;12.70;99.90;;;;;;5094518;28;20552;-67
2022/11/09 04:12:53;;;;;;;2.77;2.50;;;12.70;99.90;;;;;;5094149;28;20493;-67
2022/11/09 04:15:21;;;;;;;3.23;2.47;;;12.70;99.90;;;;;;5094493;28;20503;-66
2022/11/09 04:17:55;;;;;;;2.60;2.40;;;12.60;99.90;;;;;;5094461;28;20837;-66
2022/11/09 04:20:21;;;;;;;2.73;2.40;;;12.60;99.90;;;;;;5094153;28;20528;-66
2022/11/09 04:22:56;;;;;;;3.53;2.60;;;12.60;99.90;;;;;;5094057;28;20553;-67
2022/11/09 04:25:24;;;;;;;2.57;2.27;;;12.50;99.90;;;;;;5094118;28;20484;-66
2022/11/09 04:27:54;;;;;;;3.53;2.60;;;12.60;99.90;;;;;;5094499;28;20877;-66
2022/11/09 04:30:21;;;;;;;6.13;2.70;;;12.60;99.90;;;;;;5094439;28;20533;-67
2022/11/09 04:32:48;;;;;;;3.63;2.50;;;12.60;99.90;;;;;;5094248;28;20461;-67
2022/11/09 04:35:16;;;;;;;2.67;2.47;;;12.60;99.90;;;;;;5093979;28;20533;-66
2022/11/09 04:37:42;;;;;;;2.83;2.53;;;12.60;99.90;;;;;;5094179;28;20940;-67
2022/11/09 04:40:12;;;;;;;3.80;2.47;;;12.60;99.90;;;;;;5093837;28;20544;-66
2022/11/09 04:42:39;;;;;;;3.10;2.80;;;12.70;99.90;;;;;;5094281;28;20540;-66
2022/11/09 04:45:07;;;;;;;2.80;2.20;;;12.70;99.90;;;;;;5094310;28;20469;-66
2022/11/09 04:47:34;;;;;;;2.63;2.33;;;12.70;99.90;;;;;;5094040;28;20638;-67
2022/11/09 04:50:01;;;;;;;3.13;2.20;;;12.70;99.90;;;;;;5093847;28;20543;-66
2022/11/09 04:52:28;;;;;;;3.90;2.37;;;12.60;99.90;;;;;;5094019;28;20993;-66
2022/11/09 04:54:55;;;;;;;3.60;2.20;;;12.60;99.90;;;;;;5093896;28;20511;-66
2022/11/09 04:57:23;;;;;;;4.27;2.53;;;12.60;99.90;;;;;;5093874;28;20652;-66
2022/11/09 04:59:50;;;;;;;2.50;2.30;;;12.60;99.90;;;;;;5093975;28;20522;-67
2022/11/09 05:02:17;;;;;;;3.97;2.73;;;12.70;99.90;;;;;;5094288;28;20980;-68
2022/11/09 05:04:44;;;;;;;2.73;2.53;;;12.70;99.90;;;;;;5097676;28;20526;-66
2022/11/09 05:07:10;;;;;;;3.27;2.20;;;12.60;99.90;;;;;;5097666;28;20485;-67
2022/11/09 05:09:37;;;;;;;5.67;2.73;;;12.70;99.90;;;;;;5097615;28;20552;-66
2022/11/09 05:12:05;;;;;;;2.53;2.30;;;12.70;99.90;;;;;;5097466;28;20881;-66
2022/11/09 05:14:33;;;;;;;4.67;3.17;;;12.70;99.90;;;;;;5097226;28;20524;-66
2022/11/09 05:17:00;;;;;;;3.27;2.97;;;12.70;99.90;;;;;;5097866;28;20536;-67
2022/11/09 05:19:27;;;;;;;3.60;3.00;;;12.70;99.90;;;;;;5097202;28;20523;-66
2022/11/09 05:21:54;;;;;;;3.33;2.70;;;12.70;99.90;;;;;;5097432;28;20548;-67
2022/11/09 05:24:20;;;;;;;5.93;2.77;;;12.70;99.90;;;;;;5097042;28;20522;-67
2022/11/09 05:26:46;;;;;;;3.50;3.10;;;12.60;99.90;;;;;;5097188;28;20484;-66
2022/11/09 05:29:14;;;;;;;2.90;2.60;;;12.60;99.90;;;;;;5096859;28;20203;-66
2022/11/09 05:31:44;;;;;;;3.30;2.80;;;12.60;99.90;;;;;;5097155;28;20541;-66
2022/11/09 05:34:13;;;;;;;4.03;2.90;;;12.50;99.90;;;;;;5096752;28;20488;-66
2022/11/09 05:36:40;;;;;;;3.60;2.70;;;12.50;99.90;;;;;;5096875;28;20489;-67
2022/11/09 05:39:07;;;;;;;3.60;2.90;;;12.50;99.90;;;;;;5096972;28;20514;-67
2022/11/09 05:41:34;;;;;;;2.90;2.70;;;12.50;99.90;;;;;;5096509;28;20453;-67
2022/11/09 05:44:00;;;;;;;4.07;2.93;;;12.50;99.90;;;;;;5096856;28;20837;-68
2022/11/09 05:46:27;;;;;;;2.97;2.67;;;12.50;99.90;;;;;;5096729;28;20477;-67
2022/11/09 05:48:56;;;;;;;6.53;3.50;;;12.50;99.90;;;;;;5096537;28;20465;-67
2022/11/09 05:51:23;;;;;;;4.20;3.50;;;12.60;99.90;;;;;;5096596;28;20493;-65
2022/11/09 05:53:50;;;;;;;4.60;3.23;;;12.60;99.90;;;;;;5096669;28;20473;-67
2022/11/09 05:56:17;;;;;;;3.00;2.70;;;12.60;99.90;;;;;;5096475;28;20532;-65
2022/11/09 05:58:44;;;;;;;4.70;3.20;;;12.60;99.90;;;;;;5096824;28;20841;-68
2022/11/09 06:01:12;;;;;;;7.03;4.20;;;12.60;99.90;;;;;;5096714;28;20454;-66
2022/11/09 06:03:42;;;;;;;3.40;2.70;;;12.60;99.90;;;;;;5097106;28;20902;-66
2022/11/09 06:06:12;;;;;;;4.00;3.00;;;12.60;99.90;;;;;;5096731;28;20478;-66
2022/11/09 06:08:39;;;;;;;5.10;3.00;;;12.60;99.90;;;;;;5097112;28;20500;-66
2022/11/09 06:11:08;;;;;;;4.10;2.50;;;12.70;99.90;;;;;;5096641;28;20522;-67
2022/11/09 06:13:35;;;;;;;3.33;2.93;;;12.70;99.90;;;;;;5096561;28;20465;-67
2022/11/09 06:16:04;;;;;;;3.90;2.60;;;12.70;99.90;;;;;;5098284;28;20834;-66
2022/11/09 06:18:33;;;;;;;6.60;4.50;;;12.70;99.90;;;;;;5097488;28;20496;-66
2022/11/09 06:21:01;;;;;;;5.60;2.90;;;12.80;99.90;;;;;;5096419;28;20741;-66
2022/11/09 06:23:30;;;;;;;3.60;3.30;;;12.80;99.90;;;;;;5095878;28;20457;-67
2022/11/09 06:25:58;;;;;;;4.07;2.87;;;12.90;99.90;;;;;;5095714;28;20529;-66
2022/11/09 06:28:25;;;;;;;5.50;3.30;;;12.90;99.90;;;;;;5095885;28;20523;-67
2022/11/09 06:30:52;;;;;;;4.90;3.20;;;12.90;99.90;;;;;;5096120;28;20453;-67
2022/11/09 06:33:19;;;;;;;5.23;2.77;;;12.90;99.90;;;;;;5095954;28;20469;-67
2022/11/09 06:35:46;;;;;;;4.30;2.90;;;12.90;99.90;;;;;;5095947;28;20532;-67
2022/11/09 06:38:13;;;;;;;3.73;2.77;;;12.90;99.90;;;;;;5096054;28;20489;-66
2022/11/09 06:40:41;;;;;;;4.50;2.80;;;13.00;99.90;;;;;;5096732;28;20485;-66
2022/11/09 06:43:09;;;;;;;3.40;2.73;;;13.00;99.90;;;;;;5096666;28;20485;-66
2022/11/09 06:45:36;;;;;;;4.10;2.77;;;13.00;99.90;;;;;;5096581;28;20504;-66
2022/11/09 06:48:04;;;;;;;4.60;3.20;;;13.00;99.90;;;;;;5096014;28;20457;-67
2022/11/09 06:50:32;;;;;;;3.73;3.03;;;13.00;99.90;;;;;;5095959;28;20885;-67
2022/11/09 06:53:01;;;;;;;9.53;3.40;;;12.90;99.90;;;;;;5095459;28;20484;-68
2022/11/09 06:55:29;;;;;;;3.60;3.10;;;12.90;99.90;;;;;;5095017;28;20536;-65
2022/11/09 06:57:58;;;;;;;7.20;4.07;;;12.90;99.90;;;;;;5095631;28;20458;-66
2022/11/09 07:00:26;;;;;;;3.67;2.83;;;12.90;99.90;;;;;;5095478;28;20463;-67
2022/11/09 07:02:54;;;;;;;9.77;3.97;;;12.90;99.90;;;;;;5095630;28;20457;-66
2022/11/09 07:05:21;;;;;;;4.00;3.53;;;12.90;99.90;;;;;;5095498;28;20460;-67
2022/11/09 07:07:48;;;;;;;3.27;2.97;;;12.80;99.90;;;;;;5095381;28;20544;-67
2022/11/09 07:10:15;;;;;;;4.30;3.37;;;12.80;99.90;;;;;;5094955;28;20516;-68
2022/11/09 07:12:42;;;;;;;3.60;3.00;;;12.70;99.90;;;;;;5095374;28;20485;-67
2022/11/09 07:15:11;;;;;;;4.87;3.13;;;12.70;99.90;;;;;;5094979;28;20489;-67
2022/11/09 07:17:40;;;;;;;5.60;4.00;;;12.60;99.90;;;;;;5095225;28;20784;-66
2022/11/09 07:20:08;;;;;;;3.93;3.10;;;12.60;99.90;;;;;;5095277;28;20583;-67
2022/11/09 07:22:38;;;;;;;6.40;3.43;;;12.50;99.90;;;;;;5095434;28;20582;-68
2022/11/09 07:25:06;;;;;;;8.43;6.00;;;12.40;99.90;;;;;;5094023;28;20931;-67
2022/11/09 07:27:33;;;;;;;5.10;3.57;;;12.30;99.90;;;;;;5095047;28;20528;-66
2022/11/09 07:30:00;;;;;;;14.73;7.57;;;12.30;99.90;;;;;;5095009;28;20518;-67
2022/11/09 07:32:28;;;;;;;11.10;4.70;;;12.20;99.90;;;;;;5094787;28;20529;-67
2022/11/09 07:34:55;;;;;;;5.37;3.87;;;12.20;99.90;;;;;;5094640;28;20490;-67
2022/11/09 07:37:22;;;;;;;13.80;9.43;;;12.10;99.90;;;;;;5095053;28;20826;-67
2022/11/09 07:39:49;;;;;;;13.10;4.70;;;12.10;99.90;;;;;;5094690;28;20504;-67
2022/11/09 07:42:16;;;;;;;7.27;5.00;;;12.10;99.90;;;;;;5094823;28;20537;-67
2022/11/09 07:44:43;;;;;;;6.50;4.50;;;12.10;99.90;;;;;;5094408;28;20457;-67
2022/11/09 07:47:11;;;;;;;11.50;4.10;;;12.10;99.90;;;;;;5094517;28;20473;-67
2022/11/09 07:49:39;;;;;;;5.93;4.30;;;12.10;99.90;;;;;;5094766;28;20510;-66
2022/11/09 07:52:06;;;;;;;6.80;3.83;;;12.00;99.90;;;;;;5094387;28;20460;-67
2022/11/09 07:54:33;;;;;;;5.03;3.87;;;12.00;99.90;;;;;;5094442;28;20548;-67
2022/11/09 07:57:00;;;;;;;5.17;4.30;;;12.00;99.90;;;;;;5094695;28;20536;-67
2022/11/09 07:59:27;;;;;;;6.43;4.30;;;11.90;99.90;;;;;;5094984;28;20495;-67
2022/11/09 08:01:54;;;;;;;6.43;4.70;;;11.90;99.90;;;;;;5094284;28;20457;-67
2022/11/09 08:04:20;;;;;;;8.47;4.80;;;11.90;99.90;;;;;;5094538;28;20481;-67
2022/11/09 08:06:51;;;;;;;7.23;4.50;;;11.90;99.90;;;;;;5094236;28;20516;-68
2022/11/09 08:09:18;;;;;;;8.50;4.27;;;11.90;99.90;;;;;;5094897;28;20825;-67
2022/11/09 08:11:45;;;;;;;5.57;4.30;;;11.90;99.90;;;;;;5094340;28;20461;-68
2022/11/09 08:14:12;;;;;;;4.93;4.43;;;11.90;99.90;;;;;;5094193;28;20552;-66
2022/11/09 08:16:39;;;;;;;5.83;4.70;;;12.00;99.90;;;;;;5094572;28;20859;-66
2022/11/09 08:19:07;;;;;;;6.10;4.57;;;12.00;99.90;;;;;;5094847;28;20518;-67
2022/11/09 08:21:35;;;;;;;5.40;3.97;;;12.00;99.90;;;;;;5094439;28;20791;-67
2022/11/09 08:24:04;;;;;;;7.67;5.20;;;12.00;99.90;;;;;;5094243;28;20552;-68
2022/11/09 08:26:31;;;;;;;7.63;4.73;;;12.10;99.90;;;;;;5094572;28;20562;-68
2022/11/09 08:28:58;;;;;;;5.47;4.10;;;12.10;99.90;;;;;;5094297;28;20485;-67
2022/11/09 08:31:25;;;;;;;7.13;4.77;;;12.10;99.90;;;;;;5093973;28;20483;-66
2022/11/09 08:33:52;;;;;;;5.17;4.00;;;12.10;99.90;;;;;;5093938;28;20461;-66
2022/11/09 08:36:19;;;;;;;5.57;4.90;;;12.20;99.90;;;;;;5094615;28;20548;-67
2022/11/09 08:38:46;;;;;;;6.90;4.67;;;12.20;99.90;;;;;;5098095;28;20461;-68
2022/11/09 08:41:15;;;;;;;6.10;4.20;;;12.20;99.90;;;;;;5097610;28;20519;-67
2022/11/09 08:43:42;;;;;;;5.80;4.30;;;12.20;99.90;;;;;;5097686;28;20454;-67
2022/11/09 08:46:08;;;;;;;7.00;4.57;;;12.20;99.90;;;;;;5097549;28;20472;-67
2022/11/09 08:48:35;;;;;;;6.50;4.53;;;12.20;99.90;;;;;;5098221;28;20530;-67
2022/11/09 08:51:02;;;;;;;6.63;4.57;;;12.30;99.90;;;;;;5097917;28;20457;-69
2022/11/09 08:53:29;;;;;;;6.70;4.37;;;12.30;99.90;;;;;;5097476;28;20450;-67
2022/11/09 08:55:57;;;;;;;8.30;4.50;;;12.30;99.90;;;;;;5097250;28;20496;-68
2022/11/09 08:58:25;;;;;;;5.77;4.23;;;12.30;99.90;;;;;;5097261;28;20526;-67
2022/11/09 09:00:52;;;;;;;8.43;4.60;;;12.30;99.90;;;;;;5097049;28;20553;-66
2022/11/09 09:03:19;;;;;;;5.33;4.37;;;12.30;99.90;;;;;;5097247;28;20544;-68
2022/11/09 09:05:46;;;;;;;5.00;4.60;;;12.30;99.90;;;;;;5097307;28;20495;-68
2022/11/09 09:08:14;;;;;;;8.63;5.60;;;12.30;99.90;;;;;;5097474;28;20549;-66
2022/11/09 09:10:41;;;;;;;12.03;4.50;;;12.30;99.90;;;;;;5097457;28;20510;-66
2022/11/09 09:13:09;;;;;;;12.30;4.97;;;12.40;99.90;;;;;;5096854;28;20997;-68
2022/11/09 09:15:37;;;;;;;6.60;4.97;;;12.40;99.90;;;;;;5096810;28;20461;-68
2022/11/09 09:18:05;;;;;;;7.77;4.87;;;12.40;99.90;;;;;;5097241;28;20453;-68
2022/11/09 09:20:32;;;;;;;7.03;4.47;;;12.50;99.90;;;;;;5096560;28;20457;-68
2022/11/09 09:23:00;;;;;;;7.50;4.60;;;12.50;99.90;;;;;;5096937;28;20485;-67
2022/11/09 09:25:28;;;;;;;8.20;4.17;;;12.50;99.90;;;;;;5096714;28;20546;-67
2022/11/09 09:27:55;;;;;;;8.63;5.23;;;12.60;99.90;;;;;;5097167;28;20652;-66
2022/11/09 09:30:22;;;;;;;5.70;4.80;;;12.70;99.90;;;;;;5099217;28;21006;-67
2022/11/09 09:32:50;;;;;;;5.80;4.17;;;12.70;99.90;;;;;;5099756;28;20453;-67
2022/11/09 09:35:17;;;;;;;5.47;4.93;;;12.80;99.90;;;;;;5099457;28;20495;-65
2022/11/09 09:37:44;;;;;;;7.70;4.47;;;12.90;99.90;;;;;;5097922;28;20541;-67
2022/11/09 09:40:23;;;;;;;4.23;3.83;;;13.00;99.90;;;;;;5097857;28;20495;-67
2022/11/09 09:42:53;;;;;;;6.80;4.57;;;13.00;99.90;;;;;;5097737;28;20510;-67
2022/11/09 09:45:22;;;;;;;5.23;4.27;;;13.10;99.90;;;;;;5098097;28;20492;-66
2022/11/09 09:47:57;;;;;;;6.77;5.13;;;13.10;99.90;;;;;;5096852;28;20580;-67
2022/11/09 09:50:27;;;;;;;9.43;5.20;;;13.10;99.90;;;;;;5096984;28;20504;-67
2022/11/09 09:52:59;;;;;;;8.73;4.60;;;13.00;99.90;;;;;;5096986;28;20453;-67
2022/11/09 09:55:33;;;;;;;9.47;5.30;;;13.00;99.90;;;;;;5096290;28;20524;-68
2022/11/09 09:58:07;;;;;;;6.07;4.47;;;13.00;99.90;;;;;;5096254;28;20444;-68
2022/11/09 10:00:37;;;;;;;9.03;4.70;;;13.00;99.90;;;;;;5096454;28;20438;-66
2022/11/09 10:03:06;;;;;;;5.10;4.60;;;13.00;99.90;;;;;;5096454;28;20776;-67
2022/11/09 10:05:46;;;;;;;5.93;4.30;;;13.00;99.90;;;;;;5097064;28;20518;-68
2022/11/09 10:08:22;;;;;;;5.47;4.87;;;13.00;99.90;;;;;;5096830;28;20472;-67
2022/11/09 10:11:04;;;;;;;4.70;4.30;;;13.00;99.90;;;;;;5096312;28;20461;-67
2022/11/09 10:13:50;;;;;;;8.03;4.30;;;13.00;99.90;;;;;;5096300;28;20477;-66
2022/11/09 10:16:24;;;;;;;5.40;4.10;;;13.00;99.90;;;;;;5097019;28;20484;-66
2022/11/09 10:19:13;;;;;;;4.67;4.10;;;13.10;99.90;;;;;;5096084;28;20904;-66
2022/11/09 10:21:48;;;;;;;5.07;4.10;;;13.10;99.90;;;;;;5095524;28;20545;-67
2022/11/09 10:24:28;;;;;;;5.03;4.53;;;13.20;99.90;;;;;;5096080;28;20762;-67
2022/11/09 10:26:57;;;;;;;7.60;3.90;;;13.20;99.90;;;;;;5096172;28;20537;-66
2022/11/09 10:29:25;;;;;;;5.20;4.43;;;13.20;99.90;;;;;;5095823;28;20510;-66
2022/11/09 10:31:55;;;;;;;4.30;3.63;;;13.20;99.90;;;;;;5095667;28;20514;-67
2022/11/09 10:34:29;;;;;;;5.97;4.47;;;13.20;99.90;;;;;;5095361;28;20511;-67
2022/11/09 10:37:05;;;;;;;5.10;4.37;;;13.20;99.90;;;;;;5095784;28;20446;-67
2022/11/09 10:39:40;;;;;;;4.50;4.10;;;13.20;99.90;;;;;;5095751;28;20481;-66
2022/11/09 10:42:10;;;;;;;4.57;4.10;;;13.30;99.90;;;;;;5095683;28;20451;-68
2022/11/09 10:44:37;;;;;;;5.13;3.57;;;13.40;99.90;;;;;;5095509;28;20522;-66
2022/11/09 10:47:08;;;;;;;7.07;4.03;;;13.40;99.90;;;;;;5095693;28;20878;-66
2022/11/09 10:49:38;;;;;;;5.00;4.17;;;13.50;99.90;;;;;;5095418;28;20488;-65
2022/11/09 10:52:05;;;;;;;5.03;3.83;;;13.60;99.90;;;;;;5095129;28;20906;-67
2022/11/09 10:54:36;;;;;;;5.73;4.37;;;13.60;99.90;;;;;;5094965;28;20489;-67
2022/11/09 10:57:13;;;;;;;5.10;4.10;;;13.70;99.90;;;;;;5094919;28;20466;-67
2022/11/09 10:59:45;;;;;;;7.00;4.30;;;13.70;99.90;;;;;;5094962;28;20494;-67
2022/11/09 11:02:40;;;;;;;4.87;4.33;;;13.70;99.90;;;;;;5094832;28;20498;-67
2022/11/09 11:05:28;;;;;;;4.70;4.20;;;13.80;99.90;;;;;;5087812;28;20511;-67
2022/11/09 11:07:56;;;;;;;6.77;3.47;;;13.90;99.90;;;;;;5095139;28;20542;-66
2022/11/09 11:10:24;;;;;;;4.97;4.20;;;13.90;99.90;;;;;;5095172;28;20851;-66
2022/11/09 11:13:20;;;;;;;4.57;3.90;;;13.90;99.90;;;;;;5095060;28;20489;-66
2022/11/09 11:15:48;;;;;;;5.20;3.83;;;14.00;99.90;;;;;;5096102;28;20852;-67
2022/11/09 11:18:20;;;;;;;4.80;3.33;;;14.20;99.90;;;;;;5095744;28;20485;-68
2022/11/09 11:21:03;;;;;;;4.40;3.00;;;14.20;99.90;;;;;;5095341;28;20449;-68
2022/11/09 11:23:32;;;;;;;5.53;2.87;;;14.40;99.90;;;;;;5094959;28;20882;-67
2022/11/09 11:26:19;;;;;;;8.00;2.90;;;14.60;99.90;;;;;;5094556;28;20537;-66
2022/11/09 11:28:51;;;;;;;3.70;3.07;;;14.80;99.90;;;;;;5094410;28;20514;-67
2022/11/09 11:31:21;;;;;;;9.57;4.10;;;14.80;99.90;;;;;;5095036;28;20421;-67
2022/11/09 11:33:48;;;;;;;5.80;3.60;;;14.90;99.90;;;;;;5094807;28;20479;-66
2022/11/09 11:36:23;;;;;;;3.23;2.93;;;14.90;99.90;;;;;;5094320;28;20459;-67
2022/11/09 11:38:57;;;;;;;4.43;3.03;;;14.90;99.90;;;;;;5095207;28;20487;-66
2022/11/09 11:41:57;;;;;;;3.53;2.70;;;15.00;99.90;;;;;;5094867;28;20507;-67
2022/11/09 11:44:50;;;;;;;2.80;2.50;;;15.30;99.90;;;;;;5094512;28;20438;-66
2022/11/09 11:47:23;;;;;;;4.93;3.07;;;15.50;99.90;;;;;;5094517;28;20557;-66
2022/11/09 11:50:32;;;;;;;3.10;2.70;;;16.00;99.90;;;;;;5094417;28;20461;-66
2022/11/09 11:53:09;;;;;;;3.57;2.23;;;16.90;99.90;;;;;;5032054;28;20479;-66
2022/11/09 11:56:05;;;;;;;2.33;2.13;;;17.80;99.90;;;;;;5083190;28;20568;-66
2022/11/09 11:58:56;;;;;;;4.33;2.73;;;18.50;99.90;;;;;;5094262;28;20495;-66
2022/11/09 12:01:38;;;;;;;3.57;2.80;;;19.20;99.90;;;;;;5091948;28;20499;-67
2022/11/09 12:04:21;;;;;;;4.80;2.30;;;19.90;99.90;;;;;;5093812;28;20526;-66
2022/11/09 12:06:59;;;;;;;2.77;2.30;;;20.50;99.90;;;;;;5094258;28;20512;-66
2022/11/09 12:10:02;;;;;;;2.57;2.30;;;20.90;99.90;;;;;;5094368;28;20804;-67
2022/11/09 12:12:40;;;;;;;2.43;2.03;;;21.00;99.90;;;;;;5096012;28;20547;-67
2022/11/09 12:15:23;;;;;;;4.90;2.40;;;21.20;99.90;;;;;;5097530;28;20469;-67
2022/11/09 12:17:59;;;;;;;2.50;2.00;;;21.40;99.90;;;;;;5097910;28;20495;-67
2022/11/09 12:20:32;;;;;;;2.93;2.43;;;22.10;99.90;;;;;;5098055;28;20788;-67
2022/11/09 12:23:23;;;;;;;2.63;2.33;;;22.40;99.90;;;;;;5097609;28;20487;-66
2022/11/09 12:26:00;;;;;;;2.47;1.90;;;22.70;99.90;;;;;;5097695;28;20477;-66
2022/11/09 12:28:44;;;;;;;5.13;2.20;;;22.60;99.90;;;;;;5097217;28;20500;-66
2022/11/09 12:31:19;;;;;;;2.47;2.00;;;22.20;99.90;;;;;;5097924;28;20510;-67
2022/11/09 12:33:52;;;;;;;2.50;2.30;;;21.40;99.90;;;;;;5097724;28;20473;-67
2022/11/09 12:36:23;;;;;;;2.97;1.77;;;20.30;99.90;;;;;;5097538;28;20484;-66
2022/11/09 12:38:58;;;;;;;2.57;2.00;;;19.50;99.90;;;;;;5097590;28;20434;-66
2022/11/09 12:41:31;;;;;;;2.70;2.37;;;19.10;99.90;;;;;;5097641;28;20441;-66
2022/11/09 12:44:03;;;;;;;3.70;2.50;;;19.00;99.90;;;;;;5097746;28;20469;-66
2022/11/09 12:46:35;;;;;;;2.63;2.43;;;18.80;99.90;;;;;;5099046;28;20437;-66
2022/11/09 12:49:05;;;;;;;5.73;2.77;;;18.50;99.90;;;;;;5099766;28;20915;-66
2022/11/09 12:51:33;;;;;;;2.83;2.50;;;18.90;99.90;;;;;;5097976;28;20838;-66
2022/11/09 12:54:08;;;;;;;3.40;2.50;;;19.20;99.90;;;;;;5097945;28;20457;-68
2022/11/09 12:56:45;;;;;;;4.47;2.77;;;19.80;99.90;;;;;;5097924;28;20460;-70
2022/11/09 12:59:34;;;;;;;4.13;2.00;;;20.20;99.90;;;;;;5098531;28;20844;-69